sensor_id;sensor_type;location;lat;lon;timestamp;temperature;humidity
63051;SHT30;49136;47.416;19.402;2022-12-26T00:00:19;6.21;99.99
63051;SHT30;49136;47.416;19.402;2022-12-26T00:02:44;6.22;99.99
63051;SHT30;49136;47.416;19.402;2022-12-26T00:05:10;6.19;99.99
63051;SHT30;49136;47.416;19.402;2022-12-26T00:07:35;6.23;99.99
63051;SHT30;49136;47.416;19.402;2022-12-26T00:10:01;6.19;99.99
63051;SHT30;49136;47.416;19.402;2022-12-26T00:12:26;6.21;99.99
63051;SHT30;49136;47.416;19.402;2022-12-26T00:14:53;6.16;99.99
63051;SHT30;49136;47.416;19.402;2022-12-26T00:17:18;6.16;99.99
63051;SHT30;49136;47.416;19.402;2022-12-26T00:19:44;6.16;99.99
63051;SHT30;49136;47.416;19.402;2022-12-26T00:22:09;6.19;99.99
63051;SHT30;49136;47.416;19.402;2022-12-26T00:24:35;6.23;99.99
63051;SHT30;49136;47.416;19.402;2022-12-26T00:27:16;6.22;99.99
63051;SHT30;49136;47.416;19.402;2022-12-26T00:29:42;6.26;99.99
63051;SHT30;49136;47.416;19.402;2022-12-26T00:32:07;6.25;99.99
63051;SHT30;49136;47.416;19.402;2022-12-26T00:34:32;6.26;99.99
63051;SHT30;49136;47.416;19.402;2022-12-26T00:37:09;6.22;99.99
63051;SHT30;49136;47.416;19.402;2022-12-26T00:39:35;6.29;99.99
63051;SHT30;49136;47.416;19.402;2022-12-26T00:42:00;6.30;99.99
63051;SHT30;49136;47.416;19.402;2022-12-26T00:44:25;6.28;99.99
63051;SHT30;49136;47.416;19.402;2022-12-26T00:46:58;6.19;99.99
63051;SHT30;49136;47.416;19.402;2022-12-26T00:49:23;6.14;99.99
63051;SHT30;49136;47.416;19.402;2022-12-26T00:51:49;6.08;99.99
63051;SHT30;49136;47.416;19.402;2022-12-26T00:54:14;6.11;99.99
63051;SHT30;49136;47.416;19.402;2022-12-26T00:56:47;6.14;99.99
63051;SHT30;49136;47.416;19.402;2022-12-26T00:59:13;6.08;99.99
63051;SHT30;49136;47.416;19.402;2022-12-26T01:01:38;6.08;99.99
63051;SHT30;49136;47.416;19.402;2022-12-26T01:04:04;6.09;99.99
63051;SHT30;49136;47.416;19.402;2022-12-26T01:06:31;6.06;99.99
63051;SHT30;49136;47.416;19.402;2022-12-26T01:08:56;6.04;99.99
63051;SHT30;49136;47.416;19.402;2022-12-26T01:11:24;6.02;99.99
63051;SHT30;49136;47.416;19.402;2022-12-26T01:14:12;5.97;99.99
63051;SHT30;49136;47.416;19.402;2022-12-26T01:16:44;5.81;99.99
63051;SHT30;49136;47.416;19.402;2022-12-26T01:19:11;5.69;99.99
63051;SHT30;49136;47.416;19.402;2022-12-26T01:21:37;5.59;99.99
63051;SHT30;49136;47.416;19.402;2022-12-26T01:24:03;5.53;99.99
63051;SHT30;49136;47.416;19.402;2022-12-26T01:26:32;5.49;99.99
63051;SHT30;49136;47.416;19.402;2022-12-26T01:28:57;5.47;99.99
63051;SHT30;49136;47.416;19.402;2022-12-26T01:31:23;5.43;99.99
63051;SHT30;49136;47.416;19.402;2022-12-26T01:33:48;5.38;99.99
63051;SHT30;49136;47.416;19.402;2022-12-26T01:36:16;5.35;99.99
63051;SHT30;49136;47.416;19.402;2022-12-26T01:38:41;5.38;99.99
63051;SHT30;49136;47.416;19.402;2022-12-26T01:41:07;5.38;99.99
63051;SHT30;49136;47.416;19.402;2022-12-26T01:43:58;5.53;99.99
63051;SHT30;49136;47.416;19.402;2022-12-26T01:46:43;5.46;99.99
63051;SHT30;49136;47.416;19.402;2022-12-26T01:51:40;5.54;99.99
63051;SHT30;49136;47.416;19.402;2022-12-26T01:54:09;5.60;99.99
63051;SHT30;49136;47.416;19.402;2022-12-26T01:56:36;5.54;99.99
63051;SHT30;49136;47.416;19.402;2022-12-26T01:59:14;5.49;99.99
63051;SHT30;49136;47.416;19.402;2022-12-26T02:01:41;5.45;99.99
63051;SHT30;49136;47.416;19.402;2022-12-26T02:04:10;5.49;99.99
63051;SHT30;49136;47.416;19.402;2022-12-26T02:06:56;5.46;99.99
63051;SHT30;49136;47.416;19.402;2022-12-26T02:09:22;5.35;99.99
63051;SHT30;49136;47.416;19.402;2022-12-26T02:11:57;5.35;99.99
63051;SHT30;49136;47.416;19.402;2022-12-26T02:14:24;5.34;99.99
63051;SHT30;49136;47.416;19.402;2022-12-26T02:16:55;5.19;99.99
63051;SHT30;49136;47.416;19.402;2022-12-26T02:30:49;5.00;99.99
63051;SHT30;49136;47.416;19.402;2022-12-26T02:36:10;4.80;99.99
63051;SHT30;49136;47.416;19.402;2022-12-26T02:39:08;4.73;99.99
63051;SHT30;49136;47.416;19.402;2022-12-26T02:41:42;4.72;99.99
63051;SHT30;49136;47.416;19.402;2022-12-26T02:53:08;4.55;99.99
63051;SHT30;49136;47.416;19.402;2022-12-26T02:56:55;4.52;99.99
63051;SHT30;49136;47.416;19.402;2022-12-26T02:59:53;4.48;99.99
63051;SHT30;49136;47.416;19.402;2022-12-26T03:03:00;4.45;99.99
63051;SHT30;49136;47.416;19.402;2022-12-26T03:05:53;4.41;99.99
63051;SHT30;49136;47.416;19.402;2022-12-26T03:08:49;4.40;99.99
63051;SHT30;49136;47.416;19.402;2022-12-26T03:11:39;4.46;99.99
63051;SHT30;49136;47.416;19.402;2022-12-26T03:14:59;4.46;99.99
63051;SHT30;49136;47.416;19.402;2022-12-26T03:20:08;4.41;99.99
63051;SHT30;49136;47.416;19.402;2022-12-26T03:25:09;4.34;99.99
63051;SHT30;49136;47.416;19.402;2022-12-26T03:28:02;4.38;99.99
63051;SHT30;49136;47.416;19.402;2022-12-26T03:30:28;4.40;99.99
63051;SHT30;49136;47.416;19.402;2022-12-26T03:33:12;4.46;99.99
63051;SHT30;49136;47.416;19.402;2022-12-26T03:35:57;4.42;99.99
63051;SHT30;49136;47.416;19.402;2022-12-26T03:38:52;4.41;99.99
63051;SHT30;49136;47.416;19.402;2022-12-26T03:41:35;4.40;99.99
63051;SHT30;49136;47.416;19.402;2022-12-26T03:44:38;4.44;99.99
63051;SHT30;49136;47.416;19.402;2022-12-26T03:50:49;4.40;99.99
63051;SHT30;49136;47.416;19.402;2022-12-26T03:53:40;4.37;99.99
63051;SHT30;49136;47.416;19.402;2022-12-26T03:56:40;4.33;99.99
63051;SHT30;49136;47.416;19.402;2022-12-26T03:59:41;4.31;99.99
63051;SHT30;49136;47.416;19.402;2022-12-26T04:02:38;4.28;99.99
63051;SHT30;49136;47.416;19.402;2022-12-26T04:05:23;4.30;99.99
63051;SHT30;49136;47.416;19.402;2022-12-26T04:08:24;4.33;99.99
63051;SHT30;49136;47.416;19.402;2022-12-26T04:11:14;4.33;99.99
63051;SHT30;49136;47.416;19.402;2022-12-26T04:14:06;4.34;99.99
63051;SHT30;49136;47.416;19.402;2022-12-26T04:22:48;4.30;99.99
63051;SHT30;49136;47.416;19.402;2022-12-26T04:25:35;4.30;99.99
63051;SHT30;49136;47.416;19.402;2022-12-26T04:28:25;4.27;99.99
63051;SHT30;49136;47.416;19.402;2022-12-26T04:31:24;4.27;99.99
63051;SHT30;49136;47.416;19.402;2022-12-26T04:34:17;4.30;99.99
63051;SHT30;49136;47.416;19.402;2022-12-26T04:37:03;4.33;99.99
63051;SHT30;49136;47.416;19.402;2022-12-26T04:39:56;4.28;99.99
63051;SHT30;49136;47.416;19.402;2022-12-26T04:42:42;4.33;99.99
63051;SHT30;49136;47.416;19.402;2022-12-26T04:45:27;4.28;99.99
63051;SHT30;49136;47.416;19.402;2022-12-26T04:47:54;4.28;99.99
63051;SHT30;49136;47.416;19.402;2022-12-26T04:50:50;4.27;99.99
63051;SHT30;49136;47.416;19.402;2022-12-26T04:53:17;4.25;99.99
63051;SHT30;49136;47.416;19.402;2022-12-26T04:55:42;4.24;99.99
63051;SHT30;49136;47.416;19.402;2022-12-26T04:58:10;4.25;99.99
63051;SHT30;49136;47.416;19.402;2022-12-26T05:00:35;4.21;99.99
63051;SHT30;49136;47.416;19.402;2022-12-26T05:03:01;4.18;99.99
63051;SHT30;49136;47.416;19.402;2022-12-26T05:05:47;4.18;99.99
63051;SHT30;49136;47.416;19.402;2022-12-26T05:08:43;4.16;99.99
63051;SHT30;49136;47.416;19.402;2022-12-26T05:11:29;4.13;99.99
63051;SHT30;49136;47.416;19.402;2022-12-26T05:13:56;4.11;99.99
63051;SHT30;49136;47.416;19.402;2022-12-26T05:16:23;4.11;99.99
63051;SHT30;49136;47.416;19.402;2022-12-26T05:19:16;4.10;99.99
63051;SHT30;49136;47.416;19.402;2022-12-26T05:22:01;4.10;99.99
63051;SHT30;49136;47.416;19.402;2022-12-26T05:24:46;4.09;99.99
63051;SHT30;49136;47.416;19.402;2022-12-26T05:27:42;4.06;99.99
63051;SHT30;49136;47.416;19.402;2022-12-26T05:30:27;4.03;99.99
63051;SHT30;49136;47.416;19.402;2022-12-26T05:32:53;4.00;99.99
63051;SHT30;49136;47.416;19.402;2022-12-26T05:35:37;4.01;99.99
63051;SHT30;49136;47.416;19.402;2022-12-26T05:38:03;4.00;99.99
63051;SHT30;49136;47.416;19.402;2022-12-26T05:40:45;3.93;99.99
63051;SHT30;49136;47.416;19.402;2022-12-26T05:43:10;3.92;99.99
63051;SHT30;49136;47.416;19.402;2022-12-26T05:45:35;3.92;99.99
63051;SHT30;49136;47.416;19.402;2022-12-26T05:48:08;3.89;99.99
63051;SHT30;49136;47.416;19.402;2022-12-26T05:50:34;3.92;99.99
63051;SHT30;49136;47.416;19.402;2022-12-26T05:52:59;3.90;99.99
63051;SHT30;49136;47.416;19.402;2022-12-26T05:55:24;3.85;99.99
63051;SHT30;49136;47.416;19.402;2022-12-26T05:57:52;3.83;99.99
63051;SHT30;49136;47.416;19.402;2022-12-26T06:00:18;3.76;99.99
63051;SHT30;49136;47.416;19.402;2022-12-26T06:02:44;3.75;99.99
63051;SHT30;49136;47.416;19.402;2022-12-26T06:05:09;3.69;99.99
63051;SHT30;49136;47.416;19.402;2022-12-26T06:07:36;3.66;99.99
63051;SHT30;49136;47.416;19.402;2022-12-26T06:10:02;3.65;99.99
63051;SHT30;49136;47.416;19.402;2022-12-26T06:12:28;3.64;99.99
63051;SHT30;49136;47.416;19.402;2022-12-26T06:14:53;3.65;99.99
63051;SHT30;49136;47.416;19.402;2022-12-26T06:17:18;3.68;99.99
63051;SHT30;49136;47.416;19.402;2022-12-26T06:19:44;3.68;99.99
63051;SHT30;49136;47.416;19.402;2022-12-26T06:22:09;3.78;99.99
63051;SHT30;49136;47.416;19.402;2022-12-26T06:24:35;3.69;99.99
63051;SHT30;49136;47.416;19.402;2022-12-26T06:27:00;3.69;99.99
63051;SHT30;49136;47.416;19.402;2022-12-26T06:29:37;3.66;99.99
63051;SHT30;49136;47.416;19.402;2022-12-26T06:32:03;3.68;99.99
63051;SHT30;49136;47.416;19.402;2022-12-26T06:34:28;3.64;99.99
63051;SHT30;49136;47.416;19.402;2022-12-26T06:36:54;3.69;99.99
63051;SHT30;49136;47.416;19.402;2022-12-26T06:39:39;3.69;99.99
63051;SHT30;49136;47.416;19.402;2022-12-26T06:42:05;3.64;99.99
63051;SHT30;49136;47.416;19.402;2022-12-26T06:44:30;3.66;99.99
63051;SHT30;49136;47.416;19.402;2022-12-26T06:46:56;3.58;99.99
63051;SHT30;49136;47.416;19.402;2022-12-26T06:49:31;3.57;99.99
63051;SHT30;49136;47.416;19.402;2022-12-26T06:51:57;3.59;99.99
63051;SHT30;49136;47.416;19.402;2022-12-26T06:54:22;3.64;99.99
63051;SHT30;49136;47.416;19.402;2022-12-26T06:56:48;3.62;99.99
63051;SHT30;49136;47.416;19.402;2022-12-26T06:59:20;3.68;99.99
63051;SHT30;49136;47.416;19.402;2022-12-26T07:01:46;3.71;99.99
63051;SHT30;49136;47.416;19.402;2022-12-26T07:04:12;3.66;99.99
63051;SHT30;49136;47.416;19.402;2022-12-26T07:06:38;3.66;99.99
63051;SHT30;49136;47.416;19.402;2022-12-26T07:09:10;3.66;99.99
63051;SHT30;49136;47.416;19.402;2022-12-26T07:11:39;3.68;99.99
63051;SHT30;49136;47.416;19.402;2022-12-26T07:14:06;3.66;99.99
63051;SHT30;49136;47.416;19.402;2022-12-26T07:16:40;3.64;99.99
63051;SHT30;49136;47.416;19.402;2022-12-26T07:19:10;3.66;99.99
63051;SHT30;49136;47.416;19.402;2022-12-26T07:21:36;3.69;99.99
63051;SHT30;49136;47.416;19.402;2022-12-26T07:24:02;3.72;99.99
63051;SHT30;49136;47.416;19.402;2022-12-26T07:26:31;3.79;99.99
63051;SHT30;49136;47.416;19.402;2022-12-26T07:28:57;3.89;99.99
63051;SHT30;49136;47.416;19.402;2022-12-26T07:34:26;4.13;99.99
63051;SHT30;49136;47.416;19.402;2022-12-26T07:36:53;4.22;99.99
63051;SHT30;49136;47.416;19.402;2022-12-26T07:39:18;4.31;99.99
63051;SHT30;49136;47.416;19.402;2022-12-26T07:41:44;4.33;99.99
63051;SHT30;49136;47.416;19.402;2022-12-26T07:44:21;4.40;99.99
63051;SHT30;49136;47.416;19.402;2022-12-26T07:46:47;4.51;99.99
63051;SHT30;49136;47.416;19.402;2022-12-26T07:49:13;4.46;99.99
63051;SHT30;49136;47.416;19.402;2022-12-26T07:51:39;4.46;99.99
63051;SHT30;49136;47.416;19.402;2022-12-26T07:54:05;4.53;99.99
63051;SHT30;49136;47.416;19.402;2022-12-26T07:56:31;4.52;99.99
63051;SHT30;49136;47.416;19.402;2022-12-26T07:59:06;4.55;99.99
63051;SHT30;49136;47.416;19.402;2022-12-26T08:01:32;4.56;99.99
63051;SHT30;49136;47.416;19.402;2022-12-26T08:03:57;4.59;99.99
63051;SHT30;49136;47.416;19.402;2022-12-26T08:06:22;4.62;99.99
63051;SHT30;49136;47.416;19.402;2022-12-26T08:08:49;4.70;99.99
63051;SHT30;49136;47.416;19.402;2022-12-26T08:11:18;4.77;99.99
63051;SHT30;49136;47.416;19.402;2022-12-26T08:13:43;4.75;99.99
63051;SHT30;49136;47.416;19.402;2022-12-26T08:16:11;4.84;99.99
63051;SHT30;49136;47.416;19.402;2022-12-26T08:18:38;4.93;99.99
63051;SHT30;49136;47.416;19.402;2022-12-26T08:21:03;5.01;99.99
63051;SHT30;49136;47.416;19.402;2022-12-26T08:23:29;5.03;99.99
63051;SHT30;49136;47.416;19.402;2022-12-26T08:25:54;5.15;99.99
63051;SHT30;49136;47.416;19.402;2022-12-26T08:28:20;5.29;99.99
63051;SHT30;49136;47.416;19.402;2022-12-26T08:31:10;5.38;99.99
63051;SHT30;49136;47.416;19.402;2022-12-26T08:33:36;5.52;99.99
63051;SHT30;49136;47.416;19.402;2022-12-26T08:36:08;5.71;99.99
63051;SHT30;49136;47.416;19.402;2022-12-26T08:38:34;5.88;99.99
63051;SHT30;49136;47.416;19.402;2022-12-26T08:41:01;6.01;99.99
63051;SHT30;49136;47.416;19.402;2022-12-26T08:43:27;6.19;99.99
63051;SHT30;49136;47.416;19.402;2022-12-26T08:46:07;6.30;99.99
63051;SHT30;49136;47.416;19.402;2022-12-26T08:48:46;6.40;99.99
63051;SHT30;49136;47.416;19.402;2022-12-26T08:51:14;6.58;99.99
63051;SHT30;49136;47.416;19.402;2022-12-26T08:53:41;6.75;99.99
63051;SHT30;49136;47.416;19.402;2022-12-26T08:56:14;7.06;99.99
63051;SHT30;49136;47.416;19.402;2022-12-26T08:58:57;7.33;99.99
63051;SHT30;49136;47.416;19.402;2022-12-26T09:01:25;7.46;99.99
63051;SHT30;49136;47.416;19.402;2022-12-26T09:03:55;7.57;99.99
63051;SHT30;49136;47.416;19.402;2022-12-26T09:06:22;7.78;99.99
63051;SHT30;49136;47.416;19.402;2022-12-26T09:09:00;7.92;99.99
63051;SHT30;49136;47.416;19.402;2022-12-26T09:11:26;8.19;99.99
63051;SHT30;49136;47.416;19.402;2022-12-26T09:13:53;8.41;99.99
63051;SHT30;49136;47.416;19.402;2022-12-26T09:16:22;8.59;99.99
63051;SHT30;49136;47.416;19.402;2022-12-26T09:19:10;8.77;99.99
63051;SHT30;49136;47.416;19.402;2022-12-26T09:21:37;8.83;99.99
63051;SHT30;49136;47.416;19.402;2022-12-26T09:24:05;8.97;99.99
63051;SHT30;49136;47.416;19.402;2022-12-26T09:26:32;9.04;99.99
63051;SHT30;49136;47.416;19.402;2022-12-26T09:29:04;9.20;99.99
63051;SHT30;49136;47.416;19.402;2022-12-26T09:31:32;9.39;99.99
63051;SHT30;49136;47.416;19.402;2022-12-26T09:34:00;9.46;99.99
63051;SHT30;49136;47.416;19.402;2022-12-26T09:36:28;9.60;99.99
63051;SHT30;49136;47.416;19.402;2022-12-26T09:38:55;9.73;99.99
63051;SHT30;49136;47.416;19.402;2022-12-26T09:44:50;10.02;99.56
63051;SHT30;49136;47.416;19.402;2022-12-26T09:50:25;10.24;99.99
63051;SHT30;49136;47.416;19.402;2022-12-26T09:53:12;10.40;99.99
63051;SHT30;49136;47.416;19.402;2022-12-26T09:55:49;10.59;99.99
63051;SHT30;49136;47.416;19.402;2022-12-26T09:58:29;10.60;98.63
63051;SHT30;49136;47.416;19.402;2022-12-26T10:04:23;10.56;97.04
63051;SHT30;49136;47.416;19.402;2022-12-26T10:07:05;10.59;97.67
63051;SHT30;49136;47.416;19.402;2022-12-26T10:12:35;10.40;97.88
63051;SHT30;49136;47.416;19.402;2022-12-26T10:18:23;10.48;97.53
63051;SHT30;49136;47.416;19.402;2022-12-26T10:23:42;10.64;96.87
63051;SHT30;49136;47.416;19.402;2022-12-26T10:29:27;10.75;96.46
63051;SHT30;49136;47.416;19.402;2022-12-26T10:32:00;10.90;94.80
63051;SHT30;49136;47.416;19.402;2022-12-26T10:34:36;10.88;94.96
63051;SHT30;49136;47.416;19.402;2022-12-26T10:42:29;11.20;93.55
63051;SHT30;49136;47.416;19.402;2022-12-26T10:44:59;11.22;92.73
63051;SHT30;49136;47.416;19.402;2022-12-26T10:47:37;11.29;93.31
63051;SHT30;49136;47.416;19.402;2022-12-26T10:50:09;11.29;93.51
63051;SHT30;49136;47.416;19.402;2022-12-26T10:52:46;11.29;92.23
63051;SHT30;49136;47.416;19.402;2022-12-26T10:55:14;11.33;92.21
63051;SHT30;49136;47.416;19.402;2022-12-26T10:57:43;11.29;92.00
63051;SHT30;49136;47.416;19.402;2022-12-26T11:00:16;11.30;92.43
63051;SHT30;49136;47.416;19.402;2022-12-26T11:06:03;11.36;91.98
63051;SHT30;49136;47.416;19.402;2022-12-26T11:08:35;11.29;91.88
63051;SHT30;49136;47.416;19.402;2022-12-26T11:11:24;11.26;91.99
63051;SHT30;49136;47.416;19.402;2022-12-26T11:13:54;11.20;92.15
63051;SHT30;49136;47.416;19.402;2022-12-26T11:16:26;11.11;91.56
63051;SHT30;49136;47.416;19.402;2022-12-26T11:18:54;11.23;92.60
63051;SHT30;49136;47.416;19.402;2022-12-26T11:21:24;11.25;92.57
63051;SHT30;49136;47.416;19.402;2022-12-26T11:23:52;11.40;92.85
63051;SHT30;49136;47.416;19.402;2022-12-26T11:26:36;11.33;91.75
63051;SHT30;49136;47.416;19.402;2022-12-26T11:29:19;11.36;91.48
63051;SHT30;49136;47.416;19.402;2022-12-26T11:31:55;11.16;91.31
63051;SHT30;49136;47.416;19.402;2022-12-26T11:34:29;11.42;91.70
63051;SHT30;49136;47.416;19.402;2022-12-26T11:36:58;11.47;90.50
63051;SHT30;49136;47.416;19.402;2022-12-26T11:39:28;11.56;90.45
63051;SHT30;49136;47.416;19.402;2022-12-26T11:42:18;11.51;90.64
63051;SHT30;49136;47.416;19.402;2022-12-26T11:44:45;11.70;91.05
63051;SHT30;49136;47.416;19.402;2022-12-26T11:47:21;11.73;89.65
63051;SHT30;49136;47.416;19.402;2022-12-26T11:50:07;11.73;90.21
63051;SHT30;49136;47.416;19.402;2022-12-26T12:03:19;12.33;87.94
63051;SHT30;49136;47.416;19.402;2022-12-26T12:06:02;12.38;88.07
63051;SHT30;49136;47.416;19.402;2022-12-26T12:08:55;12.48;88.21
63051;SHT30;49136;47.416;19.402;2022-12-26T12:20:39;12.47;87.31
63051;SHT30;49136;47.416;19.402;2022-12-26T12:23:27;12.47;88.69
63051;SHT30;49136;47.416;19.402;2022-12-26T12:28:54;12.20;87.82
63051;SHT30;49136;47.416;19.402;2022-12-26T12:31:47;12.09;88.96
63051;SHT30;49136;47.416;19.402;2022-12-26T12:34:41;12.13;89.00
63051;SHT30;49136;47.416;19.402;2022-12-26T12:40:15;12.06;88.42
63051;SHT30;49136;47.416;19.402;2022-12-26T12:45:45;12.05;89.40
63051;SHT30;49136;47.416;19.402;2022-12-26T12:56:48;11.75;90.54
63051;SHT30;49136;47.416;19.402;2022-12-26T13:01:55;11.59;90.80
63051;SHT30;49136;47.416;19.402;2022-12-26T13:04:47;11.42;90.38
63051;SHT30;49136;47.416;19.402;2022-12-26T13:07:30;11.44;91.56
63051;SHT30;49136;47.416;19.402;2022-12-26T13:10:01;11.40;91.60
63051;SHT30;49136;47.416;19.402;2022-12-26T13:12:35;11.47;92.13
63051;SHT30;49136;47.416;19.402;2022-12-26T13:15:07;11.46;91.37
63051;SHT30;49136;47.416;19.402;2022-12-26T13:17:39;11.43;91.80
63051;SHT30;49136;47.416;19.402;2022-12-26T13:20:15;11.40;91.85
63051;SHT30;49136;47.416;19.402;2022-12-26T13:22:46;11.34;92.13
63051;SHT30;49136;47.416;19.402;2022-12-26T13:25:37;11.33;92.16
63051;SHT30;49136;47.416;19.402;2022-12-26T13:28:28;11.25;92.37
63051;SHT30;49136;47.416;19.402;2022-12-26T13:30:55;11.22;92.54
63051;SHT30;49136;47.416;19.402;2022-12-26T13:33:31;11.08;92.33
63051;SHT30;49136;47.416;19.402;2022-12-26T13:35:59;10.99;92.80
63051;SHT30;49136;47.416;19.402;2022-12-26T13:41:25;10.83;93.65
63051;SHT30;49136;47.416;19.402;2022-12-26T13:49:34;10.56;95.35
63051;SHT30;49136;47.416;19.402;2022-12-26T14:31:12;8.37;99.99
63051;SHT30;49136;47.416;19.402;2022-12-26T14:34:03;8.19;99.99
63051;SHT30;49136;47.416;19.402;2022-12-26T14:39:28;7.85;99.99
63051;SHT30;49136;47.416;19.402;2022-12-26T14:45:01;7.41;99.99
63051;SHT30;49136;47.416;19.402;2022-12-26T14:47:44;7.13;99.99
63051;SHT30;49136;47.416;19.402;2022-12-26T14:53:29;6.82;99.99
63051;SHT30;49136;47.416;19.402;2022-12-26T14:58:45;6.73;99.99
63051;SHT30;49136;47.416;19.402;2022-12-26T15:34:27;5.99;99.99
63051;SHT30;49136;47.416;19.402;2022-12-26T15:40:13;5.91;99.99
63051;SHT30;49136;47.416;19.402;2022-12-26T15:48:05;5.83;99.99
63051;SHT30;49136;47.416;19.402;2022-12-26T16:05:05;5.49;99.99
63051;SHT30;49136;47.416;19.402;2022-12-26T16:13:17;5.40;99.99
63051;SHT30;49136;47.416;19.402;2022-12-26T16:15:57;5.38;99.99
63051;SHT30;49136;47.416;19.402;2022-12-26T16:18:28;5.29;99.99
63051;SHT30;49136;47.416;19.402;2022-12-26T16:20:57;5.27;99.99
63051;SHT30;49136;47.416;19.402;2022-12-26T16:23:53;5.25;99.99
63051;SHT30;49136;47.416;19.402;2022-12-26T16:26:25;5.17;99.99
63051;SHT30;49136;47.416;19.402;2022-12-26T16:28:54;5.14;99.99
63051;SHT30;49136;47.416;19.402;2022-12-26T16:31:24;5.08;99.99
63051;SHT30;49136;47.416;19.402;2022-12-26T16:34:01;5.07;99.99
63051;SHT30;49136;47.416;19.402;2022-12-26T16:36:28;5.01;99.99
63051;SHT30;49136;47.416;19.402;2022-12-26T16:38:54;5.00;99.99
63051;SHT30;49136;47.416;19.402;2022-12-26T16:41:23;4.97;99.99
63051;SHT30;49136;47.416;19.402;2022-12-26T16:43:52;4.86;99.99
63051;SHT30;49136;47.416;19.402;2022-12-26T16:46:20;4.86;99.99
63051;SHT30;49136;47.416;19.402;2022-12-26T16:48:53;4.86;99.99
63051;SHT30;49136;47.416;19.402;2022-12-26T16:53:56;4.81;99.99
63051;SHT30;49136;47.416;19.402;2022-12-26T16:56:38;4.75;99.99
63051;SHT30;49136;47.416;19.402;2022-12-26T16:59:10;4.79;99.99
63051;SHT30;49136;47.416;19.402;2022-12-26T17:01:37;4.70;99.99
63051;SHT30;49136;47.416;19.402;2022-12-26T17:07:02;4.65;99.99
63051;SHT30;49136;47.416;19.402;2022-12-26T17:09:40;4.68;99.99
63051;SHT30;49136;47.416;19.402;2022-12-26T17:12:18;4.68;99.99
63051;SHT30;49136;47.416;19.402;2022-12-26T17:14:47;4.63;99.99
63051;SHT30;49136;47.416;19.402;2022-12-26T17:17:33;4.62;99.99
63051;SHT30;49136;47.416;19.402;2022-12-26T17:20:35;4.65;99.99
63051;SHT30;49136;47.416;19.402;2022-12-26T17:23:31;4.59;99.99
63051;SHT30;49136;47.416;19.402;2022-12-26T17:26:25;4.58;99.99
63051;SHT30;49136;47.416;19.402;2022-12-26T17:28:52;4.58;99.99
63051;SHT30;49136;47.416;19.402;2022-12-26T17:31:48;4.59;99.99
63051;SHT30;49136;47.416;19.402;2022-12-26T17:34:24;4.59;99.99
63051;SHT30;49136;47.416;19.402;2022-12-26T17:36:51;4.55;99.99
63051;SHT30;49136;47.416;19.402;2022-12-26T17:39:21;4.59;99.99
63051;SHT30;49136;47.416;19.402;2022-12-26T17:42:02;4.60;99.99
63051;SHT30;49136;47.416;19.402;2022-12-26T17:44:41;4.59;99.99
63051;SHT30;49136;47.416;19.402;2022-12-26T17:47:31;4.59;99.99
63051;SHT30;49136;47.416;19.402;2022-12-26T17:50:02;4.63;99.99
63051;SHT30;49136;47.416;19.402;2022-12-26T17:52:29;4.63;99.99
63051;SHT30;49136;47.416;19.402;2022-12-26T17:54:58;4.62;99.99
63051;SHT30;49136;47.416;19.402;2022-12-26T17:57:32;4.58;99.99
63051;SHT30;49136;47.416;19.402;2022-12-26T18:00:14;4.55;99.99
63051;SHT30;49136;47.416;19.402;2022-12-26T18:02:42;4.59;99.99
63051;SHT30;49136;47.416;19.402;2022-12-26T18:05:09;4.60;99.99
63051;SHT30;49136;47.416;19.402;2022-12-26T18:07:36;4.59;99.99
63051;SHT30;49136;47.416;19.402;2022-12-26T18:10:39;4.56;99.99
63051;SHT30;49136;47.416;19.402;2022-12-26T18:13:10;4.52;99.99
63051;SHT30;49136;47.416;19.402;2022-12-26T18:15:41;4.52;99.99
63051;SHT30;49136;47.416;19.402;2022-12-26T18:18:17;4.52;99.99
63051;SHT30;49136;47.416;19.402;2022-12-26T18:21:10;4.49;99.99
63051;SHT30;49136;47.416;19.402;2022-12-26T18:23:36;4.46;99.99
63051;SHT30;49136;47.416;19.402;2022-12-26T18:26:05;4.45;99.99
63051;SHT30;49136;47.416;19.402;2022-12-26T18:28:33;4.44;99.99
63051;SHT30;49136;47.416;19.402;2022-12-26T18:31:03;4.41;99.99
63051;SHT30;49136;47.416;19.402;2022-12-26T18:33:29;4.40;99.99
63051;SHT30;49136;47.416;19.402;2022-12-26T18:35:54;4.35;99.99
63051;SHT30;49136;47.416;19.402;2022-12-26T18:38:21;4.34;99.99
63051;SHT30;49136;47.416;19.402;2022-12-26T18:41:13;4.27;99.99
63051;SHT30;49136;47.416;19.402;2022-12-26T18:43:41;4.20;99.99
63051;SHT30;49136;47.416;19.402;2022-12-26T18:46:17;4.22;99.99
63051;SHT30;49136;47.416;19.402;2022-12-26T18:48:43;4.17;99.99
63051;SHT30;49136;47.416;19.402;2022-12-26T18:51:41;4.18;99.99
63051;SHT30;49136;47.416;19.402;2022-12-26T18:54:07;4.13;99.99
63051;SHT30;49136;47.416;19.402;2022-12-26T18:56:32;4.10;99.99
63051;SHT30;49136;47.416;19.402;2022-12-26T18:58:58;4.09;99.99
63051;SHT30;49136;47.416;19.402;2022-12-26T19:01:23;4.11;99.99
63051;SHT30;49136;47.416;19.402;2022-12-26T19:03:59;4.09;99.99
63051;SHT30;49136;47.416;19.402;2022-12-26T19:06:27;4.09;99.99
63051;SHT30;49136;47.416;19.402;2022-12-26T19:08:53;4.17;99.99
63051;SHT30;49136;47.416;19.402;2022-12-26T19:14:35;4.11;99.99
63051;SHT30;49136;47.416;19.402;2022-12-26T19:17:01;4.09;99.99
63051;SHT30;49136;47.416;19.402;2022-12-26T19:19:27;4.06;99.99
63051;SHT30;49136;47.416;19.402;2022-12-26T19:21:57;4.07;99.99
63051;SHT30;49136;47.416;19.402;2022-12-26T19:24:22;4.06;99.99
63051;SHT30;49136;47.416;19.402;2022-12-26T19:26:48;4.01;99.99
63051;SHT30;49136;47.416;19.402;2022-12-26T19:29:14;3.99;99.99
63051;SHT30;49136;47.416;19.402;2022-12-26T19:31:47;3.99;99.99
63051;SHT30;49136;47.416;19.402;2022-12-26T19:34:12;3.94;99.99
63051;SHT30;49136;47.416;19.402;2022-12-26T19:36:38;3.92;99.99
63051;SHT30;49136;47.416;19.402;2022-12-26T19:39:04;3.97;99.99
63051;SHT30;49136;47.416;19.402;2022-12-26T19:41:30;3.94;99.99
63051;SHT30;49136;47.416;19.402;2022-12-26T19:43:56;3.89;99.99
63051;SHT30;49136;47.416;19.402;2022-12-26T19:46:23;3.90;99.99
63051;SHT30;49136;47.416;19.402;2022-12-26T19:48:48;3.86;99.99
63051;SHT30;49136;47.416;19.402;2022-12-26T19:51:16;3.89;99.99
63051;SHT30;49136;47.416;19.402;2022-12-26T19:53:42;3.86;99.99
63051;SHT30;49136;47.416;19.402;2022-12-26T19:56:09;3.89;99.99
63051;SHT30;49136;47.416;19.402;2022-12-26T19:58:36;3.86;99.99
63051;SHT30;49136;47.416;19.402;2022-12-26T20:01:23;3.81;99.99
63051;SHT30;49136;47.416;19.402;2022-12-26T20:03:49;3.79;99.99
63051;SHT30;49136;47.416;19.402;2022-12-26T20:06:20;3.68;99.99
63051;SHT30;49136;47.416;19.402;2022-12-26T20:08:47;3.65;99.99
63051;SHT30;49136;47.416;19.402;2022-12-26T20:11:21;3.64;99.99